Flight Track Log - Related Links

Times and Time Zones

All times are in EDT time to prevent confusion due to time zone crossing. See the JBU1781 flight status page for this flight to view local times or setup timezone preferences in your user account.


Time Position Orientation Groundspeed Altitude Reporting Facility
EDT Latitude Longitude Course Direction KTS MPH feet Rate Location/Type
Mon 02:04:58 PM 28.4067 -81.3219 128° Southeast 150 173 1,100  Level Miami Center
Mon 02:05:58 PM 28.3661 -81.2778 136° Southeast 177 204 2,600 2,100 Climbing Miami Center
Mon 02:06:58 PM 28.3181 -81.2122 130° Southeast 214 246 5,300 2,950 Climbing Miami Center
Mon 02:07:00 PM 27.4992 -80.1942 121° Southeast  Level FlightAware Approximate
Mon 02:07:58 PM 28.2725 -81.1328 123° Southeast 290 334 8,500  Level Miami Center
Mon 02:08:00 PM 27.4637 -80.1290 128° Southeast  Level FlightAware Approximate
Mon 02:08:58 PM 28.2314 -81.0439 118° Southeast 310 357 11,000  Level Miami Center
Mon 02:09:00 PM 27.4220 -80.0687 128° Southeast  Level FlightAware Approximate
Mon 02:10:00 PM 27.3803 -80.0084 128° Southeast  Level FlightAware Approximate
Mon 02:10:00 PM 28.1759 -80.9472 127° Southeast  Level FlightAware Approximate
Mon 02:10:58 PM 28.1178 -80.8492 127° Southeast 368 423 15,600  Level Miami Center
Mon 02:12:02 PM 28.0617 -80.7694 129° Southeast 392 451 17,700 2,250 Climbing Miami Center
Mon 02:12:58 PM 27.9733 -80.6419 128° Southeast 410 472 20,100 2,172 Climbing Miami Center
Mon 02:13:58 PM 27.9028 -80.5408 128° Southeast 410 472 21,900 1,450 Climbing Miami Center
Mon 02:14:58 PM 27.8342 -80.4447 129° Southeast 421 484 23,000 550 Climbing Miami Center
Mon 02:15:58 PM 27.7575 -80.3367 129° Southeast 431 496 23,000  Level Miami Center
Mon 02:18:00 PM 27.6349 -80.1675 129° Southeast  Level FlightAware Approximate
Mon 02:22:58 PM 27.2206 -79.5778 129° Southeast 431 496 23,000  Level Miami Center
Mon 02:23:58 PM 27.1514 -79.4828 129° Southeast 431 496 23,000  Level Miami Center
Mon 02:24:58 PM 27.0781 -79.3761 128° Southeast 431 496 23,000  Level Miami Center
Mon 02:25:00 PM 27.2170 -79.5827 129° Southeast  Level FlightAware Approximate
Mon 02:25:58 PM 27.0006 -79.2697 129° Southeast 431 496 23,000  Level Miami Center
Mon 02:26:00 PM 27.1569 -79.4997 129° Southeast  Level FlightAware Approximate
Mon 02:26:58 PM 26.9269 -79.1678 129° Southeast 431 496 23,000  Level Miami Center
Mon 02:27:00 PM 27.0968 -79.4167 129° Southeast  Level FlightAware Approximate
Mon 02:28:00 PM 27.0550 -79.3591 129° Southeast  Level FlightAware Approximate
Mon 02:29:00 PM 26.8401 -79.0525 130° Southeast  Level FlightAware Approximate
Mon 02:29:58 PM 26.6997 -78.8564 130° Southeast 426 490 23,000  Level Miami Center
Mon 02:32:00 PM 26.6146 -78.7398 129° Southeast  Level FlightAware Approximate
Mon 02:32:58 PM 26.4633 -78.5392 129° Southeast 424 488 23,000  Level Miami Center
Mon 02:33:58 PM 26.3894 -78.4361 129° Southeast 431 496 23,000  Level Miami Center
Mon 02:35:00 PM 26.3478 -78.3755 127° Southeast  Level FlightAware Approximate
Mon 02:36:58 PM 26.1603 -78.1275 131° Southeast 426 490 23,000  Level Miami Center
Mon 02:37:58 PM 26.0839 -78.0247 130° Southeast 431 496 23,000 -900 Level Miami Center
Mon 02:38:58 PM 26.0117 -77.9225 128° Southeast 425 489 21,200 -2,000 Descending Miami Center
Mon 02:39:58 PM 25.9350 -77.8292 132° Southeast 415 478 19,000 -2,025 Descending Miami Center
Mon 02:42:00 PM 26.0487 -77.9817 131° Southeast  Level FlightAware Approximate
Mon 02:42:00 PM 25.8461 -77.7168 131° Southeast  Level FlightAware Approximate
Mon 02:42:58 PM 25.7400 -77.5600 131° Southeast 372 428 13,100  Level Miami Center
Mon 02:43:58 PM 25.6733 -77.4953 139° Southeast 343 395 12,600 -750 Descending Miami Center
Mon 02:44:58 PM 25.5919 -77.4833 172° South 290 334 11,600 -1,000 Descending Miami Center
Mon 02:46:00 PM 25.5239 -77.4753 174° South  Level FlightAware Approximate
Mon 02:53:00 PM 25.0617 -77.4557 170° South  Level FlightAware Approximate
Mon 02:54:00 PM 25.0333 -77.4500 170° South  Level FlightAware Approximate
Mon 02:55:00 PM 25.0390 -77.4662 170° South  Level Estimated
Mon 02:56:00 PM 25.0390 -77.4662 170° South  Level Estimated
Mon 02:57:00 PM 25.0390 -77.4662 170° South  Level Estimated
Mon 02:58:00 PM 25.0390 -77.4662 170° South  Level Estimated
Mon 02:59:00 PM 25.0390 -77.4662 170° South  Level Estimated
Mon 03:00:00 PM 25.0390 -77.4662 170° South  Level Estimated
Mon 03:01:00 PM 25.0390 -77.4662 170° South  Level Estimated
Mon 03:02:00 PM 25.0390 -77.4662 170° South  Level Estimated
Mon 03:03:00 PM 25.0390 -77.4662 170° South  Level Estimated
Mon 03:04:00 PM 25.0390 -77.4662 170° South  Level Estimated
Mon 03:05:00 PM 25.0390 -77.4662 170° South  Level Estimated
Mon 03:06:00 PM 25.0390 -77.4662 170° South  Level Estimated
Mon 03:07:00 PM 25.0390 -77.4662 170° South  Level Estimated
Mon 03:08:00 PM 25.0390 -77.4662 170° South  Level Estimated
Mon 03:09:00 PM 25.0390 -77.4662 170° South  Level Estimated
Mon 03:10:00 PM 25.0390 -77.4662 170° South  Level Estimated

Login

Don't have an account? Register now (free) for customized features, flight alerts, and more!